Time;durP1;ratioP1;P1;durP2;ratioP2;P2;SDS_P1;SDS_P2;PMS_P1;PMS_P2;Temp;Humidity;BMP_temperature;BMP_pressure;BME280_temperature;BME280_humidity;BME280_pressure;Samples;Min_cycle;Max_cycle;Signal;HPM_P1;HPM_P2
2020/12/18 00:00:07;;;;;;;13.18;11.10;;;5.70;99.90;;;;;;6202362;23;20257;-83
2020/12/18 00:02:33;;;;;;;16.50;11.90;;;5.70;99.90;;;;;;6187398;23;20268;-82
2020/12/18 00:05:00;;;;;;;12.30;11.10;;;5.70;99.90;;;;;;6185147;23;20266;-82
2020/12/18 00:07:27;;;;;;;19.15;10.38;;;5.70;99.90;;;;;;6191383;23;20649;-82
2020/12/18 00:09:54;;;;;;;11.63;10.52;;;5.70;99.90;;;;;;6196816;23;20286;-82
2020/12/18 00:12:21;;;;;;;12.57;11.38;;;5.70;99.90;;;;;;6196493;23;20182;-83
2020/12/18 00:14:47;;;;;;;12.15;11.15;;;5.60;99.90;;;;;;6201452;23;20250;-83
2020/12/18 00:17:13;;;;;;;13.30;12.00;;;5.60;99.90;;;;;;6202031;23;20177;-82
2020/12/18 00:19:39;;;;;;;12.27;10.98;;;5.60;99.90;;;;;;6201880;23;20217;-83
2020/12/18 00:22:06;;;;;;;14.55;13.15;;;5.60;99.90;;;;;;6201690;23;20186;-82
2020/12/18 00:24:32;;;;;;;11.48;10.48;;;5.60;99.90;;;;;;6202127;23;20199;-82
2020/12/18 00:26:59;;;;;;;13.60;11.80;;;5.50;99.90;;;;;;6201550;23;20185;-82
2020/12/18 00:29:25;;;;;;;14.52;12.45;;;5.50;99.90;;;;;;6201320;23;20210;-83
2020/12/18 00:31:52;;;;;;;12.77;11.75;;;5.50;99.90;;;;;;6201161;23;20188;-82
2020/12/18 00:34:18;;;;;;;13.65;12.30;;;5.40;99.90;;;;;;6201299;23;20197;-83
2020/12/18 00:36:51;;;;;;;12.15;10.80;;;5.40;99.90;;;;;;6202059;23;20188;-82
2020/12/18 00:39:17;;;;;;;12.98;11.73;;;5.40;99.90;;;;;;6202620;23;20199;-82
2020/12/18 00:41:43;;;;;;;13.32;12.15;;;5.30;99.90;;;;;;6202102;23;20515;-82
2020/12/18 00:44:10;;;;;;;11.60;10.55;;;5.30;99.90;;;;;;6202764;23;20173;-83
2020/12/18 00:46:36;;;;;;;11.90;10.90;;;5.30;99.90;;;;;;6199933;23;20186;-82
2020/12/18 00:49:03;;;;;;;12.05;11.02;;;5.30;99.90;;;;;;6186199;23;20204;-82
2020/12/18 00:51:29;;;;;;;12.82;11.50;;;5.30;99.90;;;;;;6194864;23;20185;-82
2020/12/18 00:53:55;;;;;;;12.80;10.80;;;5.30;99.90;;;;;;6194277;23;20179;-82
2020/12/18 00:56:21;;;;;;;14.25;11.32;;;5.20;99.90;;;;;;6191810;23;20179;-82
2020/12/18 00:58:48;;;;;;;12.20;11.00;;;5.20;99.90;;;;;;6196657;23;20671;-83
2020/12/18 01:01:15;;;;;;;13.80;12.40;;;5.10;99.90;;;;;;6198884;23;20263;-82
2020/12/18 01:03:41;;;;;;;13.60;11.40;;;5.10;99.90;;;;;;6198239;23;20185;-82
2020/12/18 01:06:09;;;;;;;12.68;11.52;;;5.00;99.90;;;;;;6201065;23;20180;-82
2020/12/18 01:08:35;;;;;;;10.85;9.80;;;5.00;99.90;;;;;;6202737;23;20197;-82
2020/12/18 01:11:03;;;;;;;10.82;9.93;;;5.00;99.90;;;;;;6202784;23;20184;-83
2020/12/18 01:13:29;;;;;;;11.85;10.80;;;5.00;99.90;;;;;;6201794;23;20184;-82
2020/12/18 01:15:56;;;;;;;13.70;11.52;;;5.00;99.90;;;;;;6201425;23;20240;-82
2020/12/18 01:18:24;;;;;;;12.80;11.60;;;5.00;99.90;;;;;;6201945;23;20187;-82
2020/12/18 01:20:51;;;;;;;14.50;12.95;;;4.90;99.90;;;;;;6201040;23;20187;-82
2020/12/18 01:23:17;;;;;;;13.40;11.52;;;4.90;99.90;;;;;;6200980;23;20183;-82
2020/12/18 01:25:44;;;;;;;11.95;10.75;;;4.90;99.90;;;;;;6201555;23;20184;-82
2020/12/18 01:28:10;;;;;;;12.73;10.82;;;4.90;99.90;;;;;;6201431;23;20224;-82
2020/12/18 01:30:37;;;;;;;12.23;11.10;;;4.90;99.90;;;;;;6200580;23;20205;-82
2020/12/18 01:33:03;;;;;;;12.48;11.00;;;4.90;99.90;;;;;;6196376;23;20184;-82
2020/12/18 01:35:31;;;;;;;13.88;12.57;;;4.90;99.90;;;;;;6194394;23;20196;-82
2020/12/18 01:37:57;;;;;;;13.43;12.20;;;4.80;99.90;;;;;;6191564;23;20183;-82
2020/12/18 01:40:24;;;;;;;14.10;12.68;;;4.80;99.90;;;;;;6193338;23;20538;-82
2020/12/18 01:42:50;;;;;;;14.10;12.90;;;4.80;99.90;;;;;;6193992;23;20190;-82
2020/12/18 01:45:16;;;;;;;16.25;14.40;;;4.80;99.90;;;;;;6195250;23;20582;-82
2020/12/18 01:47:42;;;;;;;13.63;12.18;;;4.80;99.90;;;;;;6196847;23;20185;-82
2020/12/18 01:50:09;;;;;;;16.45;12.63;;;4.90;99.90;;;;;;6199700;23;20203;-82
2020/12/18 01:52:36;;;;;;;16.10;13.45;;;4.90;99.90;;;;;;6200452;23;20259;-82
2020/12/18 01:55:04;;;;;;;15.10;13.45;;;5.00;99.90;;;;;;6200527;23;20194;-82
2020/12/18 01:57:32;;;;;;;17.65;15.85;;;5.00;99.90;;;;;;6202846;23;20212;-83
2020/12/18 01:59:59;;;;;;;16.38;14.85;;;5.10;99.90;;;;;;6199080;23;20211;-82
2020/12/18 02:02:26;;;;;;;16.13;14.63;;;5.20;99.90;;;;;;6199913;23;20183;-82
2020/12/18 02:04:53;;;;;;;17.25;15.00;;;5.20;99.90;;;;;;6201161;23;20186;-82
2020/12/18 02:07:23;;;;;;;16.40;14.80;;;5.30;99.90;;;;;;6202065;23;20185;-82
2020/12/18 02:09:50;;;;;;;17.95;16.23;;;5.40;99.90;;;;;;6201343;23;20209;-82
2020/12/18 02:12:18;;;;;;;15.00;13.38;;;5.40;99.90;;;;;;6201086;23;20182;-83
2020/12/18 02:14:48;;;;;;;14.85;13.40;;;5.50;99.90;;;;;;6201616;23;20178;-82
2020/12/18 02:17:15;;;;;;;14.20;12.48;;;5.50;99.90;;;;;;6202112;23;20183;-82
2020/12/18 02:19:44;;;;;;;14.20;12.80;;;5.60;99.90;;;;;;6193954;23;20634;-82
2020/12/18 02:22:14;;;;;;;15.25;13.75;;;5.60;99.90;;;;;;6189650;23;20236;-83
2020/12/18 02:24:48;;;;;;;15.38;13.32;;;5.60;99.90;;;;;;6197073;23;20172;-82
2020/12/18 02:27:15;;;;;;;16.30;14.40;;;5.70;99.90;;;;;;6198932;23;20173;-82
2020/12/18 02:29:42;;;;;;;16.65;14.95;;;5.70;99.90;;;;;;6198602;23;20214;-82
2020/12/18 02:32:08;;;;;;;16.58;14.00;;;5.70;99.90;;;;;;6199170;23;20169;-82
2020/12/18 02:34:34;;;;;;;15.90;14.32;;;5.80;99.90;;;;;;6200250;23;20187;-82
2020/12/18 02:37:00;;;;;;;17.10;15.25;;;5.70;99.90;;;;;;6200772;23;20190;-82
2020/12/18 02:39:27;;;;;;;13.93;12.48;;;5.80;99.90;;;;;;6200851;23;20601;-82
2020/12/18 02:41:54;;;;;;;16.25;14.65;;;5.80;99.90;;;;;;6199555;23;20183;-82
2020/12/18 02:44:21;;;;;;;16.85;15.07;;;5.80;99.90;;;;;;6199789;23;20202;-82
2020/12/18 02:46:48;;;;;;;18.45;15.68;;;5.80;99.90;;;;;;6201131;23;20183;-82
2020/12/18 02:49:15;;;;;;;15.32;13.73;;;5.80;99.90;;;;;;6199870;23;20206;-82
2020/12/18 02:51:42;;;;;;;17.20;14.60;;;5.90;99.90;;;;;;6200098;23;20586;-82
2020/12/18 02:54:09;;;;;;;15.55;13.88;;;5.90;99.90;;;;;;6199774;23;20220;-82
2020/12/18 02:56:35;;;;;;;15.98;14.57;;;6.00;99.90;;;;;;6199952;23;20186;-82
2020/12/18 02:59:02;;;;;;;13.05;11.70;;;6.00;99.90;;;;;;6200174;23;20245;-82
2020/12/18 03:01:29;;;;;;;22.85;14.18;;;6.00;99.90;;;;;;6198871;23;20186;-82
2020/12/18 03:03:55;;;;;;;14.60;12.00;;;6.00;99.90;;;;;;6199607;23;20185;-82
2020/12/18 03:06:21;;;;;;;15.15;12.70;;;6.00;99.90;;;;;;6185847;23;20178;-81
2020/12/18 03:08:47;;;;;;;13.20;12.00;;;6.00;99.90;;;;;;6192075;23;20206;-82
2020/12/18 03:11:14;;;;;;;13.70;11.60;;;5.90;99.90;;;;;;6189670;23;20217;-81
2020/12/18 03:13:40;;;;;;;17.27;11.75;;;5.90;99.90;;;;;;6198489;23;20186;-81
2020/12/18 03:16:07;;;;;;;17.52;12.93;;;5.90;99.90;;;;;;6208521;23;20182;-81
2020/12/18 03:18:34;;;;;;;15.40;13.05;;;5.90;99.90;;;;;;6204698;23;20181;-82
2020/12/18 03:21:10;;;;;;;15.20;13.80;;;5.90;99.90;;;;;;6143616;23;20208;-83
2020/12/18 03:23:47;;;;;;;15.70;13.20;;;5.90;99.90;;;;;;6169032;23;20240;-83
2020/12/18 03:26:57;;;;;;;;;;;;;;;;;;;;;
2020/12/18 03:29:30;;;;;;;17.00;13.77;;;6.00;99.90;;;;;;6130174;23;20690;-85
2020/12/18 03:32:17;;;;;;;;;;;;;;;;;;;;;
2020/12/18 03:35:09;;;;;;;14.20;12.75;;;6.10;99.90;;;;;;6139619;23;20665;-86
2020/12/18 03:37:57;;;;;;;14.38;12.95;;;6.20;99.90;;;;;;6130711;23;20184;-84
2020/12/18 03:41:05;;;;;;;;;;;;;;;;;;;;;
2020/12/18 03:49:24;;;;;;;13.65;12.30;;;6.20;99.90;;;;;;6129129;23;20203;-86
2020/12/18 03:52:18;;;;;;;15.00;12.68;;;6.20;99.90;;;;;;6138875;23;20178;-85
2020/12/18 03:55:21;;;;;;;17.92;13.82;;;6.30;99.90;;;;;;6139768;23;20246;-84
2020/12/18 03:57:58;;;;;;;14.20;12.88;;;6.40;99.90;;;;;;6139385;23;20627;-85
2020/12/18 04:00:29;;;;;;;15.55;14.05;;;6.40;99.90;;;;;;6139925;23;20231;-86
2020/12/18 04:02:57;;;;;;;15.65;13.98;;;6.50;99.90;;;;;;6139816;23;20175;-85
2020/12/18 04:05:23;;;;;;;14.73;12.48;;;6.50;99.90;;;;;;6139499;23;20180;-85
2020/12/18 04:07:51;;;;;;;16.35;14.57;;;6.50;99.90;;;;;;6140050;23;20180;-85
2020/12/18 04:10:17;;;;;;;15.68;13.70;;;6.60;99.90;;;;;;6141036;23;20199;-85
2020/12/18 04:12:43;;;;;;;14.50;13.02;;;6.60;99.90;;;;;;6142194;23;20515;-85
2020/12/18 04:15:09;;;;;;;14.43;13.00;;;6.70;99.90;;;;;;6141672;23;20180;-86
2020/12/18 04:17:36;;;;;;;15.35;13.80;;;6.70;99.90;;;;;;6141170;23;20184;-85
2020/12/18 04:20:03;;;;;;;14.25;12.77;;;6.70;99.90;;;;;;6141999;23;20210;-86
2020/12/18 04:22:29;;;;;;;15.40;13.88;;;6.80;99.90;;;;;;6142047;23;20192;-86
2020/12/18 04:24:57;;;;;;;19.48;16.25;;;6.70;99.90;;;;;;6142383;23;20553;-84
2020/12/18 04:27:23;;;;;;;15.15;12.25;;;6.80;99.90;;;;;;6142104;23;20184;-86
2020/12/18 04:29:49;;;;;;;15.50;13.48;;;6.80;99.90;;;;;;6141861;23;20214;-85
2020/12/18 04:32:15;;;;;;;18.75;13.43;;;6.80;99.90;;;;;;6141501;23;20675;-85
2020/12/18 04:34:41;;;;;;;14.88;13.38;;;6.80;99.90;;;;;;6142652;23;20194;-85
2020/12/18 04:37:08;;;;;;;16.17;14.65;;;6.90;99.90;;;;;;6143634;23;20186;-84
2020/12/18 04:39:34;;;;;;;16.80;13.30;;;6.90;99.90;;;;;;6142653;23;20196;-84
2020/12/18 04:42:01;;;;;;;13.77;12.32;;;6.90;99.90;;;;;;6141898;23;20186;-83
2020/12/18 04:44:28;;;;;;;13.93;12.05;;;6.80;99.90;;;;;;6142159;23;20179;-86
2020/12/18 04:46:57;;;;;;;14.68;13.27;;;6.80;99.90;;;;;;6141951;23;20184;-83
2020/12/18 04:49:25;;;;;;;14.38;12.98;;;6.80;99.90;;;;;;6141758;23;20203;-86
2020/12/18 04:51:53;;;;;;;13.02;11.73;;;6.70;99.90;;;;;;6141027;23;20188;-83
2020/12/18 04:54:22;;;;;;;14.43;13.07;;;6.80;99.90;;;;;;6142107;23;20191;-83
2020/12/18 04:56:51;;;;;;;14.23;12.80;;;6.80;99.90;;;;;;6141862;23;20180;-86
2020/12/18 04:59:23;;;;;;;14.10;12.70;;;6.80;99.90;;;;;;6141806;23;20203;-85
2020/12/18 05:01:53;;;;;;;13.48;12.27;;;6.80;99.90;;;;;;6141797;23;20178;-85
2020/12/18 05:04:21;;;;;;;14.13;12.77;;;6.80;99.90;;;;;;6142404;23;20176;-85
2020/12/18 05:06:47;;;;;;;17.92;13.00;;;6.80;99.90;;;;;;6141730;23;20186;-86
2020/12/18 05:09:13;;;;;;;16.67;14.30;;;6.80;99.90;;;;;;6141262;23;20207;-84
2020/12/18 05:11:39;;;;;;;15.55;13.93;;;6.80;99.90;;;;;;6141328;23;20555;-83
2020/12/18 05:14:06;;;;;;;15.75;13.23;;;6.80;99.90;;;;;;6141194;23;20554;-83
2020/12/18 05:16:33;;;;;;;16.15;13.15;;;6.80;99.90;;;;;;6140510;23;20188;-84
2020/12/18 05:19:04;;;;;;;15.13;13.07;;;6.90;99.90;;;;;;6141300;23;20176;-83
2020/12/18 05:21:31;;;;;;;14.48;12.60;;;6.90;99.90;;;;;;6140699;23;20198;-85
2020/12/18 05:23:57;;;;;;;14.50;13.10;;;7.00;99.90;;;;;;6140248;23;20187;-86
2020/12/18 05:26:27;;;;;;;16.15;14.45;;;7.00;99.90;;;;;;6140899;23;20180;-86
2020/12/18 05:29:03;;;;;;;17.75;13.25;;;7.00;99.90;;;;;;6140975;23;20211;-83
2020/12/18 05:31:29;;;;;;;12.57;11.55;;;7.00;99.90;;;;;;6141007;23;20164;-82
2020/12/18 05:33:59;;;;;;;13.07;11.68;;;7.00;99.90;;;;;;6140260;23;20359;-84
2020/12/18 05:36:26;;;;;;;14.48;12.93;;;7.00;99.90;;;;;;6141470;23;20641;-82
2020/12/18 05:38:54;;;;;;;15.40;13.80;;;7.00;99.90;;;;;;6140943;23;20180;-84
2020/12/18 05:41:22;;;;;;;16.55;13.32;;;6.90;99.90;;;;;;6141044;23;20187;-81
2020/12/18 05:43:49;;;;;;;13.18;11.85;;;6.90;99.90;;;;;;6141038;23;20187;-83
2020/12/18 05:46:24;;;;;;;13.50;12.10;;;6.90;99.90;;;;;;6141617;23;20184;-84
2020/12/18 05:48:57;;;;;;;13.75;12.10;;;6.90;99.90;;;;;;6140899;23;20203;-82
2020/12/18 05:51:29;;;;;;;14.60;13.15;;;6.70;99.90;;;;;;6139565;23;20172;-83
2020/12/18 05:54:10;;;;;;;15.95;12.50;;;6.20;99.90;;;;;;6142133;23;20211;-85
2020/12/18 05:56:39;;;;;;;16.13;14.65;;;6.00;99.90;;;;;;6141751;23;20168;-86
2020/12/18 05:59:07;;;;;;;27.23;13.82;;;6.00;99.90;;;;;;6141963;23;20181;-86
2020/12/18 06:01:37;;;;;;;14.52;13.07;;;6.00;99.90;;;;;;6140691;23;20183;-86
2020/12/18 06:04:10;;;;;;;15.60;13.95;;;6.10;99.90;;;;;;6140975;23;20171;-86
2020/12/18 06:06:41;;;;;;;14.57;13.10;;;6.10;99.90;;;;;;6140787;23;20171;-86
2020/12/18 06:09:10;;;;;;;15.45;12.82;;;6.20;99.90;;;;;;6141334;23;20195;-84
2020/12/18 06:11:37;;;;;;;13.30;12.00;;;6.20;99.90;;;;;;6141425;23;20184;-84
2020/12/18 06:14:05;;;;;;;13.95;12.48;;;6.30;99.90;;;;;;6141393;23;20183;-84
2020/12/18 06:16:35;;;;;;;16.77;11.75;;;6.30;99.90;;;;;;6141417;23;20191;-84
2020/12/18 06:19:05;;;;;;;15.18;13.52;;;6.40;99.90;;;;;;6141988;23;20206;-83
2020/12/18 06:21:33;;;;;;;14.70;13.50;;;6.50;99.90;;;;;;6141359;23;20663;-84
2020/12/18 06:24:01;;;;;;;16.40;15.02;;;6.50;99.90;;;;;;6141425;23;20190;-82
2020/12/18 06:26:28;;;;;;;17.13;15.43;;;6.40;99.90;;;;;;6141130;23;20184;-83
2020/12/18 06:29:02;;;;;;;16.13;14.43;;;6.40;99.90;;;;;;6140603;23;20200;-83
2020/12/18 06:31:31;;;;;;;16.00;14.10;;;6.40;99.90;;;;;;6141062;23;20169;-84
2020/12/18 06:33:59;;;;;;;15.20;13.13;;;6.30;99.90;;;;;;6141065;23;20187;-82
2020/12/18 06:36:58;;;;;;;14.98;13.45;;;6.30;99.90;;;;;;6141334;23;20204;-82
2020/12/18 06:39:29;;;;;;;16.52;14.88;;;6.40;99.90;;;;;;6141015;23;20203;-85
2020/12/18 06:42:17;;;;;;;14.93;12.77;;;6.40;99.90;;;;;;6140858;23;20168;-85
2020/12/18 06:44:47;;;;;;;14.38;11.55;;;6.50;99.90;;;;;;6140267;23;20184;-85
2020/12/18 06:47:15;;;;;;;20.23;15.35;;;6.50;99.90;;;;;;6141029;23;20182;-85
2020/12/18 06:49:59;;;;;;;13.98;12.48;;;6.50;99.90;;;;;;6136825;23;20215;-85
2020/12/18 06:52:44;;;;;;;13.77;11.95;;;6.60;99.90;;;;;;6136270;23;20184;-85
2020/12/18 06:55:12;;;;;;;17.73;13.20;;;6.60;99.90;;;;;;6136478;23;20174;-86
2020/12/18 06:57:38;;;;;;;16.13;13.93;;;6.70;99.90;;;;;;6136699;23;20202;-85
2020/12/18 07:00:30;;;;;;;15.30;13.70;;;6.70;99.90;;;;;;6137012;23;20652;-84
2020/12/18 07:02:57;;;;;;;16.83;13.25;;;6.80;99.90;;;;;;6136201;23;20238;-84
2020/12/18 07:05:38;;;;;;;15.40;13.75;;;6.80;99.90;;;;;;6136413;23;20184;-82
2020/12/18 07:08:07;;;;;;;15.57;14.23;;;6.80;99.90;;;;;;6135967;23;20169;-84
2020/12/18 07:10:36;;;;;;;13.13;11.20;;;6.80;99.90;;;;;;6136871;23;20256;-83
2020/12/18 07:13:04;;;;;;;16.90;14.98;;;6.80;99.90;;;;;;6135659;23;20184;-84
2020/12/18 07:15:50;;;;;;;14.48;13.00;;;6.90;99.90;;;;;;6135818;23;20508;-84
2020/12/18 07:18:20;;;;;;;11.95;10.95;;;6.80;99.90;;;;;;6136002;23;20234;-86
2020/12/18 07:20:47;;;;;;;14.57;11.95;;;6.80;99.90;;;;;;6138370;23;20204;-82
2020/12/18 07:24:02;;;;;;;14.55;11.50;;;6.80;99.90;;;;;;6137555;23;20188;-83
2020/12/18 07:43:15;;;;;;;17.05;14.65;;;6.70;99.90;;;;;;6029892;23;20278;-85
2020/12/18 07:58:45;;;;;;;14.05;12.50;;;6.90;99.90;;;;;;5762915;24;20199;-84
2020/12/18 08:01:15;;;;;;;13.32;12.20;;;6.90;99.90;;;;;;5904471;24;20207;-84
2020/12/18 08:03:45;;;;;;;12.57;11.38;;;7.00;99.90;;;;;;6066361;23;20188;-83
2020/12/18 08:06:22;;;;;;;13.50;12.07;;;7.00;99.90;;;;;;6148582;23;20248;-83
2020/12/18 08:08:53;;;;;;;12.48;11.43;;;7.10;99.90;;;;;;6148474;23;20225;-84
2020/12/18 08:11:23;;;;;;;13.57;12.38;;;7.20;99.90;;;;;;6147917;23;20198;-84
2020/12/18 08:13:56;;;;;;;14.43;13.13;;;7.30;99.90;;;;;;6149685;23;20164;-82
2020/12/18 08:16:24;;;;;;;15.98;12.90;;;7.30;99.90;;;;;;6150412;23;20175;-82
2020/12/18 08:18:52;;;;;;;21.05;14.55;;;7.40;99.90;;;;;;6149274;23;20188;-82
2020/12/18 08:21:24;;;;;;;18.77;12.07;;;7.50;99.90;;;;;;6146916;23;20243;-83
2020/12/18 13:40:26;;;;;;;8.53;7.80;;;25.60;49.10;;;;;;6189225;23;20602;-86
2020/12/18 14:24:09;;;;;;;10.97;10.07;;;21.10;58.00;;;;;;6144121;23;20376;-83
